Olten, Switzerland
Current Conditions -  °F | °C
As of 9:00 AM on Friday 24 Oct 2014 (Local Time) from LFSB Reporting Station
Light Fog Light Fog  
Wind Chill: 36°   Ceiling: Unl
Heat Index: 36°   Visibility: 5mi
Dew Point: 36°   Wind: 1mph
Humidity: 100%   Direction: NA
Pressure: 30.21"   Gusts: NA
Location:  47.37°N, 7.9°E
Report Text: LFSB 240700Z VRB01KT 8000 0800S R15/P2000 R33/P2000 BCFGFEW001 02/02 Q1023 TEMPO 0500 BCFG BKN001
Loading
Personal Weather Stations






























Interactive Weather Map
Tropical Storm Tracking
New forecast layout! Learn more

10-Day Weather Forecast

Advertisements
Track Severe Weather on mobile